Time;durP1;ratioP1;P1;durP2;ratioP2;P2;SDS_P1;SDS_P2;PMS_P1;PMS_P2;Temp;Humidity;BMP_temperature;BMP_pressure;BME280_temperature;BME280_humidity;BME280_pressure;Samples;Min_cycle;Max_cycle;Signal;HPM_P1;HPM_P2
2022/10/07 00:00:10;;;;;;;509.70;239.48;;;;;;;13.39;65.52;100654.13;344898;28;936;-80
2022/10/07 00:00:21;;;;;;;511.17;237.18;;;;;;;13.39;65.67;100651.50;345047;28;1398;-80
2022/10/07 00:00:31;;;;;;;512.90;235.17;;;;;;;13.38;65.60;100652.41;345042;28;1143;-80
2022/10/07 00:00:42;;;;;;;508.83;236.80;;;;;;;13.41;65.53;100654.06;341668;28;1341;-81
2022/10/07 00:00:52;;;;;;;509.67;237.43;;;;;;;13.41;65.32;100660.19;344853;28;1311;-80
2022/10/07 00:01:03;;;;;;;509.60;238.40;;;;;;;13.40;65.89;100655.84;344853;28;1233;-80
2022/10/07 00:01:13;;;;;;;488.85;221.52;;;;;;;13.42;65.39;100661.91;342003;28;1207;-80
2022/10/07 00:01:24;;;;;;;475.77;209.43;;;;;;;13.43;65.55;100658.34;342710;28;1208;-80
2022/10/07 00:01:34;;;;;;;475.60;208.55;;;;;;;13.41;65.28;100654.94;339906;28;1361;-80
2022/10/07 00:01:45;;;;;;;498.33;224.23;;;;;;;13.43;65.68;100655.72;340071;29;1344;-80
2022/10/07 00:01:56;;;;;;;508.27;235.48;;;;;;;13.44;65.87;100657.41;341086;29;1321;-80
2022/10/07 00:02:06;;;;;;;520.13;237.00;;;;;;;13.44;65.71;100653.94;337400;29;917;-80
2022/10/07 00:02:16;;;;;;;517.77;238.87;;;;;;;13.44;65.65;100660.06;341139;28;830;-80
2022/10/07 00:02:27;;;;;;;516.53;237.20;;;;;;;13.44;65.52;100664.44;342044;28;1345;-79
2022/10/07 00:02:38;;;;;;;508.30;232.90;;;;;;;13.44;65.48;100660.06;342133;28;1248;-81
2022/10/07 00:02:48;;;;;;;507.58;231.20;;;;;;;13.46;65.55;100657.38;342076;28;1392;-80
2022/10/07 00:02:58;;;;;;;507.77;233.85;;;;;;;13.44;65.41;100657.41;338208;29;1369;-80
2022/10/07 00:03:09;;;;;;;506.77;237.13;;;;;;;13.44;65.67;100659.19;339572;29;1368;-79
2022/10/07 00:03:20;;;;;;;507.58;239.73;;;;;;;13.40;65.85;100658.47;341383;28;1445;-80
2022/10/07 00:03:31;;;;;;;511.63;241.50;;;;;;;13.37;65.73;100657.72;341946;28;1332;-80
2022/10/07 00:03:41;;;;;;;513.80;240.90;;;;;;;13.35;65.90;100649.88;340556;28;1353;-80
2022/10/07 00:03:51;;;;;;;518.83;240.37;;;;;;;13.36;65.78;100656.00;340851;29;1241;-80
2022/10/07 00:04:02;;;;;;;519.23;238.50;;;;;;;13.37;65.97;100661.22;335175;29;1638;-80
2022/10/07 00:04:12;;;;;;;518.73;237.93;;;;;;;13.30;65.65;100657.09;332223;29;1907;-80
2022/10/07 00:04:23;;;;;;;513.10;232.80;;;;;;;13.32;65.81;100657.88;333483;29;1312;-80
2022/10/07 00:04:33;;;;;;;519.53;232.88;;;;;;;13.28;66.14;100661.53;336028;29;1147;-80
2022/10/07 00:04:45;;;;;;;520.35;234.32;;;;;;;13.20;66.22;100656.53;337710;29;1264;-81
2022/10/07 00:04:55;;;;;;;521.13;237.68;;;;;;;13.18;66.34;100657.50;339662;29;1482;-80
2022/10/07 00:05:06;;;;;;;522.33;236.93;;;;;;;13.18;66.37;100653.09;339334;28;1227;-81
2022/10/07 00:05:16;;;;;;;525.35;238.27;;;;;;;13.20;66.72;100658.31;335339;29;1560;-81
2022/10/07 00:05:27;;;;;;;529.67;242.53;;;;;;;13.20;66.36;100661.78;331462;29;1651;-80
2022/10/07 00:05:37;;;;;;;526.55;241.68;;;;;;;13.19;66.47;100659.22;328246;30;1306;-80
2022/10/07 00:06:05;;;;;;;525.07;238.47;;;;;;;13.22;66.64;100659.97;332352;29;2030;-82
2022/10/07 00:06:17;;;;;;;512.15;228.82;;;;;;;13.24;66.64;100658.16;331576;29;2229;-82
2022/10/07 00:06:27;;;;;;;516.83;232.15;;;;;;;13.14;66.74;100659.34;330581;29;1621;-80
2022/10/07 00:06:38;;;;;;;516.35;233.10;;;;;;;13.14;66.68;100655.84;329780;30;789;-80
2022/10/07 00:06:48;;;;;;;514.73;235.83;;;;;;;13.15;66.68;100657.56;329995;29;1206;-80
2022/10/07 00:06:59;;;;;;;510.95;233.70;;;;;;;13.15;66.40;100658.44;332012;29;1372;-80
2022/10/07 00:07:09;;;;;;;513.00;234.37;;;;;;;13.15;66.54;100658.44;329372;30;840;-80
2022/10/07 00:07:20;;;;;;;512.42;233.25;;;;;;;13.19;66.46;100659.22;333982;29;1791;-80
2022/10/07 00:07:30;;;;;;;515.43;236.13;;;;;;;13.19;66.91;100654.81;330058;29;1913;-80
2022/10/07 00:07:40;;;;;;;511.90;235.55;;;;;;;13.21;66.46;100657.41;325433;30;2395;-81
2022/10/07 00:07:51;;;;;;;510.33;234.93;;;;;;;13.22;66.40;100659.97;322456;30;877;-81
2022/10/07 00:08:01;;;;;;;502.60;227.50;;;;;;;13.25;66.57;100651.97;323450;30;2285;-81
2022/10/07 00:08:12;;;;;;;504.80;228.70;;;;;;;13.26;66.45;100656.31;322153;30;2147;-81
2022/10/07 00:08:22;;;;;;;512.92;233.27;;;;;;;13.27;66.44;100651.94;322202;30;770;-81
2022/10/07 00:08:36;;;;;;;526.03;239.30;;;;;;;13.28;66.50;100658.91;325276;30;2448;-81
2022/10/07 00:08:51;;;;;;;525.85;234.85;;;;;;;13.27;66.42;100657.19;327320;30;1740;-81
2022/10/07 00:09:01;;;;;;;523.97;230.90;;;;;;;13.30;66.35;100657.09;324972;30;1408;-81
2022/10/07 00:09:11;;;;;;;526.40;229.97;;;;;;;13.29;66.69;100658.00;324239;30;2009;-81
2022/10/07 00:09:22;;;;;;;528.78;236.70;;;;;;;13.29;66.22;100658.00;323446;30;1230;-81
2022/10/07 00:09:32;;;;;;;531.17;238.07;;;;;;;13.27;66.48;100651.94;322292;30;2575;-81
2022/10/07 00:09:43;;;;;;;529.53;238.00;;;;;;;13.24;66.75;100657.28;321066;30;2481;-81
2022/10/07 00:09:53;;;;;;;534.27;240.17;;;;;;;13.20;66.75;100661.78;317657;31;1313;-81
2022/10/07 00:10:04;;;;;;;534.80;241.20;;;;;;;13.21;66.87;100654.78;312485;31;3292;-81
2022/10/07 00:10:14;;;;;;;534.17;240.10;;;;;;;13.20;66.80;100655.69;312963;31;3201;-81
2022/10/07 00:10:26;;;;;;;532.00;240.07;;;;;;;13.19;66.73;100660.06;311921;31;1185;-81
2022/10/07 00:10:40;;;;;;;529.40;238.85;;;;;;;13.19;66.79;100659.22;307590;32;1356;-81
2022/10/07 00:10:51;;;;;;;526.42;235.05;;;;;;;13.19;66.66;100659.22;312629;31;3005;-81
2022/10/07 00:11:06;;;;;;;525.05;233.73;;;;;;;13.20;66.78;100655.69;309364;31;2476;-81
2022/10/07 00:11:24;;;;;;;525.78;235.15;;;;;;;13.19;66.61;100659.22;305951;31;1922;-81
2022/10/07 00:11:34;;;;;;;530.55;233.95;;;;;;;13.18;66.87;100660.13;309368;31;2423;-81
2022/10/07 00:11:45;;;;;;;532.40;233.73;;;;;;;13.17;66.99;100658.41;306588;32;3544;-81
2022/10/07 00:11:55;;;;;;;534.90;233.57;;;;;;;13.13;67.09;100656.75;302294;32;1343;-81
2022/10/07 00:12:05;;;;;;;535.57;236.13;;;;;;;13.15;67.08;100660.19;305141;32;4014;-81
2022/10/07 00:12:16;;;;;;;536.20;237.32;;;;;;;13.12;67.02;100661.16;305757;31;4825;-81
2022/10/07 00:12:27;;;;;;;537.43;242.97;;;;;;;13.13;66.86;100659.41;303412;32;5228;-81
2022/10/07 00:12:37;;;;;;;537.30;238.55;;;;;;;13.13;66.86;100655.00;297376;33;962;-81
2022/10/07 00:12:48;;;;;;;542.07;236.77;;;;;;;13.06;67.23;100657.88;298135;32;3650;-81
2022/10/07 00:13:00;;;;;;;545.47;238.77;;;;;;;12.99;67.47;100652.88;299155;32;3790;-81
2022/10/07 00:13:10;;;;;;;544.05;240.55;;;;;;;12.98;67.67;100656.41;297119;33;1386;-81
2022/10/07 00:13:21;;;;;;;537.90;240.77;;;;;;;12.98;67.21;100653.78;298743;33;4208;-81
2022/10/07 00:13:32;;;;;;;534.25;238.65;;;;;;;12.98;67.34;100660.81;297110;32;2914;-81
2022/10/07 00:13:43;;;;;;;534.17;239.45;;;;;;;12.99;67.29;100655.50;293127;33;3810;-81
2022/10/07 00:13:58;;;;;;;530.75;238.15;;;;;;;13.02;67.24;100661.53;293199;33;1417;-81
2022/10/07 00:14:09;;;;;;;530.35;240.82;;;;;;;13.05;67.28;100658.78;295105;33;1141;-81
2022/10/07 00:14:19;;;;;;;535.42;238.60;;;;;;;13.05;67.27;100656.16;290551;33;6670;-81
2022/10/07 00:14:29;;;;;;;539.43;237.13;;;;;;;13.07;67.17;100659.59;288979;33;7147;-80
2022/10/07 00:14:41;;;;;;;545.88;237.38;;;;;;;13.08;67.05;100656.06;287485;34;1327;-80
2022/10/07 00:14:51;;;;;;;547.22;240.52;;;;;;;13.07;67.01;100654.34;282937;34;1414;-80
2022/10/07 00:15:02;;;;;;;553.63;238.87;;;;;;;13.08;67.16;100656.91;283166;34;4752;-80
2022/10/07 00:15:13;;;;;;;551.50;235.52;;;;;;;13.09;67.13;100652.53;279535;35;5520;-80
2022/10/07 00:15:23;;;;;;;552.60;236.73;;;;;;;13.09;67.25;100650.75;275976;35;1261;-80
2022/10/07 00:15:34;;;;;;;548.40;237.00;;;;;;;13.09;67.16;100657.78;274355;35;6224;-80
2022/10/07 00:15:45;;;;;;;543.22;235.18;;;;;;;13.10;67.23;100648.97;273791;35;5436;-80
2022/10/07 00:18:04;;;;;;;521.32;221.10;;;;;;;13.10;67.47;100659.50;2501501;27;20467;-80
2022/10/07 00:18:15;;;;;;;535.88;233.20;;;;;;;13.08;67.50;100661.31;352156;28;1291;-80
2022/10/07 00:18:25;;;;;;;541.20;234.17;;;;;;;13.08;67.37;100656.06;347906;28;1246;-80
2022/10/07 00:18:36;;;;;;;544.20;229.77;;;;;;;13.09;67.22;100652.53;348873;28;1263;-80
2022/10/07 00:18:50;;;;;;;546.20;231.43;;;;;;;13.09;67.39;100655.16;351759;28;1282;-80
2022/10/07 00:19:01;;;;;;;546.70;234.15;;;;;;;13.05;67.70;100656.16;349131;28;1176;-80
2022/10/07 00:19:11;;;;;;;546.74;235.76;;;;;;;13.05;67.53;100653.53;347485;28;1375;-80
2022/10/07 00:19:22;;;;;;;549.97;236.20;;;;;;;13.06;67.38;100657.88;348788;28;1238;-80
2022/10/07 00:19:32;;;;;;;551.05;236.57;;;;;;;13.07;67.47;100654.34;347850;28;975;-80
2022/10/07 00:19:43;;;;;;;550.73;235.40;;;;;;;13.07;67.57;100660.47;348257;28;1213;-80
2022/10/07 00:19:53;;;;;;;545.70;232.75;;;;;;;13.02;67.51;100651.00;350380;28;1307;-80
2022/10/07 00:20:05;;;;;;;544.30;232.83;;;;;;;13.02;67.49;100662.38;349027;28;1325;-80
2022/10/07 00:20:15;;;;;;;539.17;232.93;;;;;;;13.03;67.39;100658.84;350320;28;1412;-80
2022/10/07 00:20:26;;;;;;;533.90;229.65;;;;;;;13.04;67.64;100654.44;348860;28;1238;-80
2022/10/07 00:20:39;;;;;;;530.90;223.83;;;;;;;13.03;67.84;100656.22;348105;28;1307;-80
2022/10/07 00:20:49;;;;;;;526.75;223.48;;;;;;;13.03;67.71;100658.00;347758;28;1378;-80
2022/10/07 00:21:04;;;;;;;519.93;228.10;;;;;;;13.04;67.71;100654.44;348213;28;1204;-80
2022/10/07 00:21:15;;;;;;;520.42;233.23;;;;;;;13.00;67.94;100651.94;347540;28;1274;-80
2022/10/07 00:21:27;;;;;;;523.97;232.82;;;;;;;13.04;67.41;100654.44;346490;28;1345;-80
2022/10/07 00:21:38;;;;;;;525.58;236.50;;;;;;;13.05;67.49;100657.03;350343;28;1334;-80
2022/10/07 00:21:48;;;;;;;525.80;236.30;;;;;;;13.07;67.58;100656.97;348984;28;1211;-80
2022/10/07 00:21:59;;;;;;;529.53;235.93;;;;;;;13.05;67.57;100661.41;346046;28;1029;-80
2022/10/07 00:22:09;;;;;;;533.17;235.85;;;;;;;13.06;67.72;100661.38;346353;28;1208;-80
2022/10/07 00:22:19;;;;;;;539.03;236.50;;;;;;;13.06;67.63;100655.25;346360;28;751;-80
2022/10/07 00:22:30;;;;;;;539.53;237.05;;;;;;;13.05;67.64;100648.28;344857;28;1237;-80
2022/10/07 00:22:40;;;;;;;543.63;237.60;;;;;;;13.03;67.83;100653.59;342398;28;1169;-80
2022/10/07 00:22:52;;;;;;;542.40;237.60;;;;;;;13.05;67.87;100661.41;344941;28;1185;-80
2022/10/07 00:23:02;;;;;;;543.55;238.73;;;;;;;13.07;67.64;100660.47;346568;28;1300;-80
2022/10/07 00:23:13;;;;;;;543.63;235.95;;;;;;;13.07;67.82;100659.59;346750;28;1370;-80
2022/10/07 00:23:23;;;;;;;554.40;235.17;;;;;;;13.07;67.56;100659.59;345127;28;1197;-80
2022/10/07 00:23:34;;;;;;;556.33;236.70;;;;;;;13.07;67.69;100660.47;346508;28;1335;-81
2022/10/07 00:23:45;;;;;;;556.17;239.67;;;;;;;13.07;67.96;100655.22;345460;28;1267;-80
2022/10/07 00:23:56;;;;;;;552.65;243.65;;;;;;;13.04;67.70;100654.44;347399;28;1422;-80
2022/10/07 00:24:07;;;;;;;555.92;245.30;;;;;;;13.04;67.95;100664.97;342150;28;1421;-80
2022/10/07 00:24:17;;;;;;;559.95;245.43;;;;;;;13.05;67.92;100661.41;344753;28;1147;-80
2022/10/07 00:24:28;;;;;;;565.47;242.10;;;;;;;13.00;67.81;100657.19;344775;28;902;-80
2022/10/07 00:24:38;;;;;;;565.63;242.32;;;;;;;13.03;67.94;100653.59;344730;28;1427;-80
2022/10/07 00:24:49;;;;;;;563.80;247.27;;;;;;;13.04;67.69;100654.44;343688;28;1193;-80
2022/10/07 00:24:59;;;;;;;559.08;248.80;;;;;;;13.06;67.94;100668.41;344727;28;1370;-80
2022/10/07 00:25:09;;;;;;;558.43;251.10;;;;;;;13.06;67.78;100663.13;342225;28;1254;-80
2022/10/07 00:25:20;;;;;;;556.35;248.30;;;;;;;13.06;67.90;100655.25;340902;29;1348;-80
2022/10/07 00:25:30;;;;;;;559.90;247.87;;;;;;;13.07;67.84;100659.59;343639;28;1191;-80
2022/10/07 00:25:41;;;;;;;558.85;243.23;;;;;;;13.07;68.01;100659.59;342178;28;1209;-80
2022/10/07 00:25:51;;;;;;;560.07;243.57;;;;;;;13.05;67.71;100662.28;343861;28;881;-80
2022/10/07 00:26:03;;;;;;;560.42;245.68;;;;;;;13.05;67.70;100662.28;345229;28;2055;-80
2022/10/07 00:26:19;;;;;;;567.55;245.98;;;;;;;13.07;67.80;100670.13;346082;28;1438;-80
2022/10/07 00:26:31;;;;;;;569.92;243.45;;;;;;;13.08;68.13;100661.31;342092;28;1394;-80
2022/10/07 00:26:41;;;;;;;567.10;244.90;;;;;;;13.09;68.14;100668.28;343360;28;1594;-80
2022/10/07 00:26:52;;;;;;;566.67;247.20;;;;;;;13.08;67.89;100662.19;347528;28;1192;-80
2022/10/07 00:27:02;;;;;;;555.90;246.25;;;;;;;13.10;67.76;100668.25;343290;28;1467;-80
2022/10/07 00:27:13;;;;;;;544.80;242.83;;;;;;;13.10;67.79;100665.63;341342;28;1308;-80
2022/10/07 00:27:23;;;;;;;536.80;240.38;;;;;;;13.10;67.42;100659.50;345029;28;1341;-80
2022/10/07 00:27:34;;;;;;;534.63;237.20;;;;;;;13.08;68.11;100667.44;347587;28;1387;-80
2022/10/07 00:27:44;;;;;;;536.53;238.23;;;;;;;13.07;67.94;100659.59;343794;28;1228;-80
2022/10/07 00:27:54;;;;;;;535.97;240.83;;;;;;;13.04;67.94;100660.56;339103;29;1273;-80
2022/10/07 00:28:05;;;;;;;528.78;238.38;;;;;;;13.05;68.16;100669.31;337800;29;1020;-80
2022/10/07 00:28:15;;;;;;;514.23;233.30;;;;;;;13.05;67.73;100666.69;337991;29;1731;-80
2022/10/07 00:28:26;;;;;;;506.53;229.50;;;;;;;13.05;67.85;100666.69;335091;29;1783;-80
2022/10/07 00:28:36;;;;;;;512.53;234.90;;;;;;;13.02;67.80;100658.91;332293;29;1203;-80
2022/10/07 00:28:47;;;;;;;517.20;238.48;;;;;;;13.03;68.13;100664.09;332880;29;1559;-80
2022/10/07 00:28:57;;;;;;;515.07;239.37;;;;;;;13.05;67.81;100664.06;328604;29;2053;-80
2022/10/07 00:29:08;;;;;;;514.67;236.80;;;;;;;13.05;67.73;100661.41;328468;30;1354;-80
2022/10/07 00:29:18;;;;;;;518.60;238.07;;;;;;;13.05;68.06;100664.06;330632;29;866;-80
2022/10/07 00:29:29;;;;;;;520.60;240.70;;;;;;;13.07;67.80;100667.47;328718;29;1322;-80
2022/10/07 00:29:39;;;;;;;521.07;241.00;;;;;;;13.07;67.70;100659.59;331055;29;1316;-80
2022/10/07 00:29:50;;;;;;;521.30;241.60;;;;;;;13.06;67.73;100665.78;330662;29;934;-80
2022/10/07 00:30:00;;;;;;;525.78;241.05;;;;;;;13.07;67.82;100664.84;330391;29;1466;-80
2022/10/07 00:30:11;;;;;;;534.57;243.97;;;;;;;13.05;67.65;100664.91;325159;30;1954;-80
2022/10/07 00:30:22;;;;;;;532.45;243.90;;;;;;;13.06;67.48;100657.88;322142;30;1462;-80
2022/10/07 00:30:32;;;;;;;525.63;242.57;;;;;;;13.07;67.66;100664.84;325197;30;1899;-80
2022/10/07 00:30:42;;;;;;;521.60;240.45;;;;;;;13.06;67.96;100663.13;322213;30;2280;-79
2022/10/07 00:30:59;;;;;;;520.07;239.80;;;;;;;13.03;68.09;100663.25;320048;30;1371;-80
2022/10/07 00:31:13;;;;;;;516.80;240.20;;;;;;;13.04;67.90;100667.59;318070;31;2544;-80
2022/10/07 00:31:29;;;;;;;520.70;236.68;;;;;;;13.03;67.95;100658.00;313583;31;1825;-80
2022/10/07 00:31:40;;;;;;;525.92;238.55;;;;;;;13.02;67.95;100666.78;313902;31;1201;-80
2022/10/07 00:31:51;;;;;;;529.63;243.50;;;;;;;12.99;67.85;100668.63;313280;31;1402;-80
2022/10/07 00:32:01;;;;;;;532.75;244.13;;;;;;;13.00;67.78;100665.06;315770;31;1570;-80
2022/10/07 00:32:11;;;;;;;535.30;244.23;;;;;;;12.98;67.61;100661.66;312495;31;2106;-80
2022/10/07 00:32:22;;;;;;;535.30;246.75;;;;;;;12.99;67.39;100671.25;308483;32;1355;-80
2022/10/07 00:32:32;;;;;;;537.80;249.23;;;;;;;12.99;67.76;100663.38;304713;32;2636;-80
2022/10/07 00:32:43;;;;;;;538.50;244.90;;;;;;;12.96;67.82;100666.09;306452;31;2815;-80
2022/10/07 00:32:53;;;;;;;540.07;242.90;;;;;;;12.95;67.78;100661.75;306952;31;3180;-80
2022/10/07 00:33:03;;;;;;;540.85;242.57;;;;;;;12.89;67.83;100661.97;305665;32;1347;-80
2022/10/07 00:33:14;;;;;;;539.70;245.40;;;;;;;12.88;68.13;100664.66;305808;32;3203;-80
2022/10/07 00:33:24;;;;;;;533.67;242.30;;;;;;;12.83;67.83;100662.16;304278;32;3023;-80
2022/10/07 00:33:36;;;;;;;530.37;239.37;;;;;;;12.84;68.11;100668.28;302518;32;936;-80
2022/10/07 00:33:47;;;;;;;529.78;237.07;;;;;;;12.86;68.20;100666.47;310163;31;2423;-80
2022/10/07 00:33:57;;;;;;;532.95;239.68;;;;;;;12.83;68.22;100661.31;309649;31;2006;-79
2022/10/07 00:34:09;;;;;;;536.67;243.73;;;;;;;12.82;68.44;100664.84;304870;32;1299;-79
2022/10/07 00:34:20;;;;;;;539.22;247.88;;;;;;;12.81;68.42;100671.88;301328;32;1060;-79
2022/10/07 00:34:30;;;;;;;542.15;247.48;;;;;;;12.80;68.50;100669.28;299725;32;3371;-79
2022/10/07 00:34:41;;;;;;;544.27;246.33;;;;;;;12.80;68.44;100664.03;296831;33;4529;-79
2022/10/07 00:34:51;;;;;;;543.88;246.02;;;;;;;12.79;68.24;100663.19;295127;33;1200;-79
2022/10/07 00:35:01;;;;;;;542.50;244.00;;;;;;;12.79;68.29;100660.56;296690;32;3701;-81
2022/10/07 00:35:12;;;;;;;542.60;243.05;;;;;;;12.81;68.17;100664.00;293714;33;4509;-80
2022/10/07 00:35:22;;;;;;;545.07;241.23;;;;;;;12.83;68.02;100675.31;295253;33;1021;-80
2022/10/07 00:35:34;;;;;;;541.85;237.43;;;;;;;12.84;67.96;100670.91;294828;33;4816;-80
2022/10/07 00:35:44;;;;;;;536.85;233.75;;;;;;;12.84;67.90;100669.13;293155;33;4024;-79
2022/10/07 00:35:55;;;;;;;535.00;235.70;;;;;;;12.82;68.39;100670.97;292730;33;3438;-79
2022/10/07 00:36:10;;;;;;;530.40;234.68;;;;;;;12.84;68.08;100674.41;295288;33;1359;-81
2022/10/07 00:36:26;;;;;;;517.95;228.38;;;;;;;12.84;68.14;100669.13;290299;34;1420;-80
2022/10/07 00:36:36;;;;;;;507.77;225.50;;;;;;;12.85;67.94;100670.00;288607;34;1272;-80
2022/10/07 00:36:49;;;;;;;503.63;226.40;;;;;;;12.86;67.95;100675.19;287740;34;4595;-80
2022/10/07 00:37:00;;;;;;;499.92;225.55;;;;;;;12.87;67.97;100671.66;284605;34;5384;-80
2022/10/07 00:37:10;;;;;;;496.35;221.85;;;;;;;12.89;68.08;100672.47;282808;34;6696;-80
2022/10/07 00:37:20;;;;;;;498.03;218.80;;;;;;;12.90;67.72;100670.72;279236;35;1356;-80
2022/10/07 00:37:31;;;;;;;502.03;220.67;;;;;;;12.90;67.82;100668.94;279792;35;6327;-80
2022/10/07 00:37:41;;;;;;;503.60;220.93;;;;;;;12.91;67.81;100673.28;279389;35;6687;-80
2022/10/07 00:37:52;;;;;;;499.43;212.67;;;;;;;12.92;67.77;100671.50;277576;35;1319;-80
2022/10/07 00:38:02;;;;;;;498.58;201.38;;;;;;;12.90;67.59;100668.94;274641;35;6799;-80
2022/10/07 00:38:13;;;;;;;498.37;191.73;;;;;;;12.90;67.71;100673.34;273056;35;6010;-80
2022/10/07 00:38:23;;;;;;;504.77;192.93;;;;;;;12.85;67.37;100665.59;271938;36;5089;-80
2022/10/07 00:38:34;;;;;;;512.27;198.20;;;;;;;12.86;67.86;100674.34;267332;37;1308;-80
2022/10/07 00:38:48;;;;;;;512.42;198.57;;;;;;;12.85;67.40;100670.84;266448;36;7163;-80
2022/10/07 00:40:31;;;;;;;476.99;182.75;;;;;;;12.92;66.87;100675.00;2484427;27;20270;-81
2022/10/07 00:40:42;;;;;;;491.92;197.10;;;;;;;12.91;67.14;100670.66;348714;28;1311;-81
2022/10/07 00:40:52;;;;;;;495.27;200.43;;;;;;;12.93;66.98;100668.84;345493;28;1345;-80
2022/10/07 00:41:03;;;;;;;497.10;203.93;;;;;;;12.93;67.04;100668.84;345860;28;1070;-80
2022/10/07 00:41:18;;;;;;;498.48;205.20;;;;;;;12.95;66.74;100672.28;343986;28;799;-80
2022/10/07 00:41:30;;;;;;;498.75;203.90;;;;;;;12.94;66.79;100670.56;343889;28;1376;-80
2022/10/07 00:41:43;;;;;;;500.45;206.82;;;;;;;12.99;66.55;100673.88;346365;28;1287;-80
2022/10/07 00:41:53;;;;;;;501.65;204.23;;;;;;;12.97;66.81;100673.09;346602;28;1275;-80
2022/10/07 00:42:03;;;;;;;502.65;202.65;;;;;;;12.97;66.65;100670.47;348120;28;1274;-80
2022/10/07 00:42:14;;;;;;;507.37;207.77;;;;;;;12.97;66.62;100675.72;348284;28;1014;-81
2022/10/07 00:42:24;;;;;;;505.85;205.77;;;;;;;12.96;66.62;100671.38;347972;28;1341;-81
2022/10/07 00:42:35;;;;;;;502.43;204.57;;;;;;;12.95;66.58;100667.03;346631;28;1310;-81
2022/10/07 00:42:46;;;;;;;499.88;205.18;;;;;;;12.97;66.51;100665.19;346779;28;1337;-80
2022/10/07 00:42:56;;;;;;;500.92;207.23;;;;;;;12.97;66.58;100675.72;345224;28;1184;-80
2022/10/07 00:43:30;;;;;;;508.13;211.50;;;;;;;12.98;66.60;100672.19;349208;28;1245;-80
2022/10/07 00:43:41;;;;;;;511.65;209.10;;;;;;;12.96;66.29;100667.88;346641;28;1298;-80
2022/10/07 00:43:51;;;;;;;511.37;211.57;;;;;;;12.95;66.54;100664.41;346509;28;1205;-80
2022/10/07 00:44:30;;;;;;;503.90;210.80;;;;;;;12.94;66.68;100669.69;345363;28;892;-80
2022/10/07 00:44:44;;;;;;;496.67;209.88;;;;;;;12.90;66.70;100666.31;342084;28;1274;-80
2022/10/07 00:44:54;;;;;;;505.73;213.50;;;;;;;12.88;66.76;100668.13;340016;29;1452;-80
2022/10/07 00:45:13;;;;;;;507.30;219.17;;;;;;;12.86;66.63;100667.31;342646;28;1399;-80
2022/10/07 00:45:24;;;;;;;505.23;219.00;;;;;;;12.85;66.69;100665.59;342097;28;1521;-80
2022/10/07 00:45:34;;;;;;;507.47;214.80;;;;;;;12.86;66.64;100669.09;337396;29;1222;-80
2022/10/07 00:45:46;;;;;;;509.52;212.73;;;;;;;12.84;66.64;100663.88;338527;29;1399;-80
2022/10/07 00:46:13;;;;;;;519.28;216.77;;;;;;;12.83;66.40;100667.41;341180;29;883;-80
2022/10/07 00:46:32;;;;;;;510.95;220.10;;;;;;;12.81;66.65;100671.88;339714;28;1400;-80
2022/10/07 00:46:43;;;;;;;500.35;212.68;;;;;;;12.83;66.70;100663.94;338285;29;1338;-80
2022/10/07 00:46:54;;;;;;;498.92;211.02;;;;;;;12.83;66.55;100666.56;335550;29;1242;-80
2022/10/07 00:47:17;;;;;;;505.80;213.40;;;;;;;12.84;66.59;100663.88;337474;29;1228;-80
2022/10/07 00:47:32;;;;;;;512.15;212.10;;;;;;;12.84;66.47;100668.28;335953;29;1419;-81
2022/10/07 00:47:44;;;;;;;508.85;212.45;;;;;;;12.85;66.39;100668.22;338422;29;1366;-81
2022/10/07 00:47:55;;;;;;;502.05;214.02;;;;;;;12.82;66.82;100664.84;334537;29;1520;-81
2022/10/07 00:48:06;;;;;;;498.05;214.32;;;;;;;12.82;66.58;100663.06;334780;29;1295;-81
2022/10/07 00:48:23;;;;;;;498.40;212.13;;;;;;;12.83;66.65;100670.06;337130;29;1444;-81
2022/10/07 00:48:33;;;;;;;508.85;214.07;;;;;;;12.82;66.62;100668.34;335872;29;1579;-81
2022/10/07 00:48:45;;;;;;;513.85;218.35;;;;;;;12.80;66.67;100662.28;335504;29;1418;-81
2022/10/07 00:49:01;;;;;;;517.35;223.82;;;;;;;12.80;66.52;100667.53;337021;29;1368;-81
2022/10/07 00:49:12;;;;;;;522.50;224.20;;;;;;;12.79;66.50;100660.56;331885;29;1631;-81
2022/10/07 00:49:22;;;;;;;523.60;225.48;;;;;;;12.79;66.46;100665.81;328534;29;1951;-80
2022/10/07 00:49:39;;;;;;;523.00;228.37;;;;;;;12.80;66.54;100664.91;328619;30;871;-81
2022/10/07 00:50:24;;;;;;;526.72;233.15;;;;;;;12.77;66.46;100670.25;333424;29;1334;-81
2022/10/07 00:50:35;;;;;;;515.00;220.27;;;;;;;12.78;66.59;100668.47;333983;29;1552;-80
2022/10/07 00:50:46;;;;;;;518.00;219.63;;;;;;;12.77;66.44;100670.25;331223;29;1205;-80
2022/10/07 00:50:57;;;;;;;522.47;223.02;;;;;;;12.78;66.60;100660.59;333623;29;2155;-80
2022/10/07 00:51:08;;;;;;;523.92;225.43;;;;;;;12.79;66.42;100665.81;331586;29;1668;-80
2022/10/07 00:51:19;;;;;;;525.80;226.50;;;;;;;12.80;66.38;100662.28;328292;30;895;-80
2022/10/07 00:51:31;;;;;;;525.00;224.90;;;;;;;12.79;66.28;100665.81;331075;29;1483;-80
2022/10/07 00:51:42;;;;;;;527.15;224.82;;;;;;;12.79;66.29;100660.56;329621;30;1725;-81
2022/10/07 00:51:52;;;;;;;526.15;228.23;;;;;;;12.82;66.67;100664.84;326344;30;1318;-81
2022/10/07 00:52:03;;;;;;;526.50;232.13;;;;;;;12.81;66.16;100666.63;328394;30;1270;-81
2022/10/07 00:52:13;;;;;;;528.28;231.45;;;;;;;12.81;66.24;100669.25;326194;30;1225;-81
2022/10/07 00:52:25;;;;;;;530.13;233.50;;;;;;;12.83;66.35;100663.94;321437;30;1722;-81
2022/10/07 00:52:45;;;;;;;530.65;232.30;;;;;;;12.83;66.28;100661.31;318671;30;2109;-81
2022/10/07 00:52:56;;;;;;;529.00;230.57;;;;;;;12.81;66.39;100666.63;322482;30;2406;-81
2022/10/07 00:53:08;;;;;;;524.83;227.30;;;;;;;12.80;66.29;100664.03;321522;30;2869;-81
2022/10/07 00:53:19;;;;;;;525.33;227.48;;;;;;;12.81;66.48;100666.63;321809;30;2405;-81
2022/10/07 00:53:30;;;;;;;528.53;229.15;;;;;;;12.81;66.40;100666.63;317934;31;3177;-81
2022/10/07 00:53:41;;;;;;;529.42;230.48;;;;;;;12.79;66.24;100664.94;318715;30;2520;-81
2022/10/07 00:53:51;;;;;;;529.00;230.80;;;;;;;12.80;66.29;100666.66;316840;31;1788;-81
2022/10/07 00:54:03;;;;;;;533.50;234.90;;;;;;;12.80;66.44;100667.53;314287;31;1275;-81
2022/10/07 00:54:14;;;;;;;538.17;236.30;;;;;;;12.79;66.28;100671.06;316627;31;1535;-81
2022/10/07 00:54:24;;;;;;;537.60;239.05;;;;;;;12.78;66.58;100664.09;313254;31;1518;-81
2022/10/07 00:54:35;;;;;;;535.17;236.57;;;;;;;12.80;66.52;100662.28;312582;31;2331;-81
2022/10/07 00:54:46;;;;;;;531.60;235.25;;;;;;;12.80;66.37;100661.41;312097;31;1410;-81
2022/10/07 00:54:57;;;;;;;530.95;236.98;;;;;;;12.81;66.67;100669.25;311808;31;3186;-81
2022/10/07 00:55:11;;;;;;;528.30;238.20;;;;;;;12.80;66.55;100670.16;312551;31;3028;-81
2022/10/07 00:55:22;;;;;;;525.20;233.93;;;;;;;12.75;66.68;100668.56;312274;31;3815;-81
2022/10/07 00:55:34;;;;;;;528.60;233.80;;;;;;;12.74;66.70;100667.72;308717;32;1373;-81
2022/10/07 00:55:44;;;;;;;530.72;234.57;;;;;;;12.73;66.61;100665.16;305204;32;3325;-81
2022/10/07 00:55:56;;;;;;;530.15;234.80;;;;;;;12.68;66.92;100661.81;303013;32;3090;-81
2022/10/07 00:56:06;;;;;;;533.58;238.20;;;;;;;12.65;66.89;100663.63;302058;32;2177;-81
2022/10/07 00:56:17;;;;;;;535.28;238.45;;;;;;;12.63;66.83;100669.84;306758;32;1286;-81
2022/10/07 00:56:28;;;;;;;538.97;240.52;;;;;;;12.64;67.25;100666.28;306265;32;2055;-81
2022/10/07 00:56:38;;;;;;;540.60;240.52;;;;;;;12.64;66.61;100666.28;304158;32;2501;-81